Wan Hai 510 — 9VJJ8 — position and weather

sailwx.info

Track history (hours):
 
Tides and Currents Weather Stations Pressure Air Temp Water Temp Dewpoint Dewpoint Depression Visibility Wind Speed Wind Dir Waves Ship Positions

Wan Hai 510

Last reported at 2017-May-25 00:09 UTC. Time now 2017-May-27 13:54 UTC.
Position N 22°20' E 114°08'.

Length 269 m; draft 10.9 m.

Type: Ship. MMSI: 565706755.

Date/timePositionNaut miles runAvg speedWind from/ knotsBaromVisibWave heightAir tempDewpointWater temp
2017-May-25 00:09N 22°20' E 114°08'321 8.9
2017-May-23 11:55N 22°32' E 119°55'818.2
2017-May-23 11:30N 22°32' E 120°03'918.5
2017-May-23 11:00N 22°33' E 120°13'610.9
2017-May-23 10:29N 22°33' E 120°19'2 3.6
2017-May-23 10:00N 22°35' E 120°18'0 0.1
2017-May-23 09:29N 22°35' E 120°18'0 0.1
2017-May-23 08:59N 22°35' E 120°18'0 0.1
2017-May-23 08:29N 22°35' E 120°18'0 0.1
2017-May-23 07:59N 22°35' E 120°18'0 0.0
2017-May-23 07:23N 22°35' E 120°18'0 0.0
2017-May-23 06:59N 22°35' E 120°18'0 0.0
2017-May-23 06:29N 22°35' E 120°18'0 0.1
2017-May-23 05:59N 22°35' E 120°18'0 0.0
2017-May-23 05:29N 22°35' E 120°18'0 0.1
2017-May-23 04:59N 22°35' E 120°18'0 0.0
2017-May-23 04:29N 22°35' E 120°18'0 0.0
2017-May-23 03:59N 22°35' E 120°18'0 0.0
2017-May-23 03:26N 22°35' E 120°18'0 0.0
2017-May-23 02:59N 22°35' E 120°18'0 0.0
2017-May-23 02:29N 22°35' E 120°18'0 0.0
2017-May-23 01:59N 22°35' E 120°18'0 0.0
2017-May-23 01:23N 22°35' E 120°18'0 0.0
2017-May-23 00:59N 22°35' E 120°18'0 0.0
2017-May-23 00:29N 22°35' E 120°18'0 0.0
2017-May-22 23:59N 22°35' E 120°18'0 0.0
2017-May-22 23:29N 22°35' E 120°18'0 0.0
2017-May-22 22:56N 22°35' E 120°18'0 0.0
2017-May-22 22:11N 22°35' E 120°18'0 0.0
2017-May-22 21:56N 22°35' E 120°18'0 0.0
2017-May-22 20:41N 22°35' E 120°18'0 0.0
2017-May-22 19:26N 22°35' E 120°18'0 0.0
2017-May-22 18:59N 22°35' E 120°18'0 0.0
2017-May-22 18:29N 22°35' E 120°18'0 0.0
2017-May-22 15:17N 22°35' E 120°18'0 0.0
2017-May-22 14:59N 22°35' E 120°18'0 0.0
2017-May-22 13:53N 22°35' E 120°18'0 0.1
2017-May-22 13:20N 22°35' E 120°18'0 0.1
2017-May-22 12:50N 22°35' E 120°18'0 0.0
2017-May-22 11:38N 22°35' E 120°18'0 0.0
2017-May-22 11:02N 22°35' E 120°18'0 0.0
2017-May-22 10:59N 22°35' E 120°18'0 0.0
2017-May-22 10:29N 22°35' E 120°18'0 0.0
2017-May-22 09:59N 22°35' E 120°18'0 0.0
2017-May-22 09:29N 22°35' E 120°18'0 0.0
2017-May-22 08:23N 22°35' E 120°18'0 0.0
2017-May-22 07:59N 22°35' E 120°18'0 0.0
2017-May-22 07:29N 22°35' E 120°18'0 0.0
2017-May-22 06:59N 22°35' E 120°18'0 0.0
2017-May-22 06:29N 22°35' E 120°18'0 0.0
2017-May-22 05:59N 22°35' E 120°18'0 0.0
2017-May-22 05:26N 22°35' E 120°18'0 0.0
2017-May-22 04:59N 22°35' E 120°18'0 0.0
2017-May-22 04:29N 22°35' E 120°18'0 0.0
2017-May-22 03:59N 22°35' E 120°18'0 0.0
2017-May-22 03:29N 22°35' E 120°18'0 0.0
2017-May-22 02:59N 22°35' E 120°18'0 0.0
2017-May-22 02:30N 22°35' E 120°18'1 2.3
2017-May-22 02:00N 22°34' E 120°19'3 6.1
2017-May-22 01:31N 22°32' E 120°16'4 8.1
2017-May-22 01:00N 22°30' E 120°12'3 6.3
2017-May-22 00:30N 22°28' E 120°10'815.5
2017-May-22 00:00N 22°22' E 120°04'  
2017-May-18 18:20N 01°16' E 104°10'619.4
2017-May-18 18:00N 01°15' E 104°03'917.5
2017-May-18 17:30N 01°13' E 103°55'5 9.3
2017-May-18 17:00N 01°15' E 103°51'1 1.8
2017-May-18 16:31N 01°16' E 103°50'0 0.0
2017-May-18 15:58N 01°16' E 103°50'0 0.0
2017-May-18 15:28N 01°16' E 103°50'0 0.0
2017-May-18 14:58N 01°16' E 103°50'0 0.0
2017-May-18 14:28N 01°16' E 103°50'0 0.0
2017-May-18 13:28N 01°16' E 103°50'0 0.0
2017-May-18 12:58N 01°16' E 103°50'0 0.0
2017-May-18 12:28N 01°16' E 103°50'0 0.0
2017-May-18 11:58N 01°16' E 103°50'0 0.0
2017-May-18 11:28N 01°16' E 103°50'0 0.0
2017-May-18 10:49N 01°16' E 103°50'0 0.1
2017-May-18 10:10N 01°16' E 103°50'0 0.2
2017-May-18 09:52N 01°16' E 103°50'0 0.0
2017-May-18 09:28N 01°16' E 103°50'0 0.0
2017-May-18 08:55N 01°16' E 103°50'0 0.0
2017-May-18 08:22N 01°16' E 103°50'0 0.0
2017-May-18 07:55N 01°16' E 103°50'0 0.0
2017-May-18 07:04N 01°16' E 103°50'0 0.1
2017-May-18 06:49N 01°16' E 103°50'0 0.0
2017-May-18 06:28N 01°16' E 103°50'0 0.0
2017-May-18 05:55N 01°16' E 103°50'0 0.1
2017-May-18 05:25N 01°16' E 103°50'0 0.1
2017-May-18 04:58N 01°16' E 103°50'0 0.0
2017-May-18 04:28N 01°16' E 103°50'0 0.0
2017-May-18 03:55N 01°16' E 103°50'0 0.0
2017-May-18 03:28N 01°16' E 103°50'0 0.1
2017-May-18 03:00N 01°16' E 103°50'1 2.9
2017-May-18 02:30N 01°15' E 103°51'2 4.8
2017-May-18 02:00N 01°14' E 103°53'1 2.7
2017-May-18 01:30N 01°13' E 103°54'2 3.3
2017-May-18 01:00N 01°12' E 103°55'4 7.3
2017-May-18 00:30N 01°11' E 103°51'3 7.0
2017-May-18 00:00N 01°10' E 103°48'4 7.7
2017-May-17 23:30N 01°07' E 103°45'4 7.6
2017-May-17 23:00N 01°05' E 103°43'4 7.1
2017-May-17 22:30N 01°03' E 103°40'4 6.6
2017-May-17 21:57N 01°04' E 103°36'1 1.8
2017-May-17 21:28N 01°04' E 103°35'3 5.9
2017-May-17 20:58N 01°06' E 103°33'2 5.0
2017-May-17 20:30N 01°07' E 103°31'3 5.7
2017-May-17 20:00N 01°09' E 103°28'3 5.1
2017-May-17 19:30N 01°10' E 103°26'5 9.0
2017-May-17 19:00N 01°13' E 103°23'914.2
2017-May-17 18:23N 01°19' E 103°16'  
Track history (hours):
 
Tides and Currents Weather Stations Pressure Air Temp Water Temp Dewpoint Dewpoint Depression Visibility Wind Speed Wind Dir Waves Ship Positions

Wan Hai 510

Last reported at 2017-May-25 00:09 UTC. Time now 2017-May-27 13:54 UTC.
Position N 22°20' E 114°08'.

Length 269 m; draft 10.9 m.

Type: Ship. MMSI: 565706755.

Date/timePositionNaut miles runAvg speedWind from/ knotsBaromVisibWave heightAir tempDewpointWater temp
2017-May-25 00:09N 22°20' E 114°08'321 8.9
2017-May-23 11:55N 22°32' E 119°55'818.2
2017-May-23 11:30N 22°32' E 120°03'918.5
2017-May-23 11:00N 22°33' E 120°13'610.9
2017-May-23 10:29N 22°33' E 120°19'2 3.6
2017-May-23 10:00N 22°35' E 120°18'0 0.1
2017-May-23 09:29N 22°35' E 120°18'0 0.1
2017-May-23 08:59N 22°35' E 120°18'0 0.1
2017-May-23 08:29N 22°35' E 120°18'0 0.1
2017-May-23 07:59N 22°35' E 120°18'0 0.0
2017-May-23 07:23N 22°35' E 120°18'0 0.0
2017-May-23 06:59N 22°35' E 120°18'0 0.0
2017-May-23 06:29N 22°35' E 120°18'0 0.1
2017-May-23 05:59N 22°35' E 120°18'0 0.0
2017-May-23 05:29N 22°35' E 120°18'0 0.1
2017-May-23 04:59N 22°35' E 120°18'0 0.0
2017-May-23 04:29N 22°35' E 120°18'0 0.0
2017-May-23 03:59N 22°35' E 120°18'0 0.0
2017-May-23 03:26N 22°35' E 120°18'0 0.0
2017-May-23 02:59N 22°35' E 120°18'0 0.0
2017-May-23 02:29N 22°35' E 120°18'0 0.0
2017-May-23 01:59N 22°35' E 120°18'0 0.0
2017-May-23 01:23N 22°35' E 120°18'0 0.0
2017-May-23 00:59N 22°35' E 120°18'0 0.0
2017-May-23 00:29N 22°35' E 120°18'0 0.0
2017-May-22 23:59N 22°35' E 120°18'0 0.0
2017-May-22 23:29N 22°35' E 120°18'0 0.0
2017-May-22 22:56N 22°35' E 120°18'0 0.0
2017-May-22 22:11N 22°35' E 120°18'0 0.0
2017-May-22 21:56N 22°35' E 120°18'0 0.0
2017-May-22 20:41N 22°35' E 120°18'0 0.0
2017-May-22 19:26N 22°35' E 120°18'0 0.0
2017-May-22 18:59N 22°35' E 120°18'0 0.0
2017-May-22 18:29N 22°35' E 120°18'0 0.0
2017-May-22 15:17N 22°35' E 120°18'0 0.0
2017-May-22 14:59N 22°35' E 120°18'0 0.0
2017-May-22 13:53N 22°35' E 120°18'0 0.1
2017-May-22 13:20N 22°35' E 120°18'0 0.1
2017-May-22 12:50N 22°35' E 120°18'0 0.0
2017-May-22 11:38N 22°35' E 120°18'0 0.0
2017-May-22 11:02N 22°35' E 120°18'0 0.0
2017-May-22 10:59N 22°35' E 120°18'0 0.0
2017-May-22 10:29N 22°35' E 120°18'0 0.0
2017-May-22 09:59N 22°35' E 120°18'0 0.0
2017-May-22 09:29N 22°35' E 120°18'0 0.0
2017-May-22 08:23N 22°35' E 120°18'0 0.0
2017-May-22 07:59N 22°35' E 120°18'0 0.0
2017-May-22 07:29N 22°35' E 120°18'0 0.0
2017-May-22 06:59N 22°35' E 120°18'0 0.0
2017-May-22 06:29N 22°35' E 120°18'0 0.0
2017-May-22 05:59N 22°35' E 120°18'0 0.0
2017-May-22 05:26N 22°35' E 120°18'0 0.0
2017-May-22 04:59N 22°35' E 120°18'0 0.0
2017-May-22 04:29N 22°35' E 120°18'0 0.0
2017-May-22 03:59N 22°35' E 120°18'0 0.0
2017-May-22 03:29N 22°35' E 120°18'0 0.0
2017-May-22 02:59N 22°35' E 120°18'0 0.0
2017-May-22 02:30N 22°35' E 120°18'1 2.3
2017-May-22 02:00N 22°34' E 120°19'3 6.1
2017-May-22 01:31N 22°32' E 120°16'4 8.1
2017-May-22 01:00N 22°30' E 120°12'3 6.3
2017-May-22 00:30N 22°28' E 120°10'815.5
2017-May-22 00:00N 22°22' E 120°04'  
2017-May-18 18:20N 01°16' E 104°10'619.4
2017-May-18 18:00N 01°15' E 104°03'917.5
2017-May-18 17:30N 01°13' E 103°55'5 9.3
2017-May-18 17:00N 01°15' E 103°51'1 1.8
2017-May-18 16:31N 01°16' E 103°50'0 0.0
2017-May-18 15:58N 01°16' E 103°50'0 0.0
2017-May-18 15:28N 01°16' E 103°50'0 0.0
2017-May-18 14:58N 01°16' E 103°50'0 0.0
2017-May-18 14:28N 01°16' E 103°50'0 0.0
2017-May-18 13:28N 01°16' E 103°50'0 0.0
2017-May-18 12:58N 01°16' E 103°50'0 0.0
2017-May-18 12:28N 01°16' E 103°50'0 0.0
2017-May-18 11:58N 01°16' E 103°50'0 0.0
2017-May-18 11:28N 01°16' E 103°50'0 0.0
2017-May-18 10:49N 01°16' E 103°50'0 0.1
2017-May-18 10:10N 01°16' E 103°50'0 0.2
2017-May-18 09:52N 01°16' E 103°50'0 0.0
2017-May-18 09:28N 01°16' E 103°50'0 0.0
2017-May-18 08:55N 01°16' E 103°50'0 0.0
2017-May-18 08:22N 01°16' E 103°50'0 0.0
2017-May-18 07:55N 01°16' E 103°50'0 0.0
2017-May-18 07:04N 01°16' E 103°50'0 0.1
2017-May-18 06:49N 01°16' E 103°50'0 0.0
2017-May-18 06:28N 01°16' E 103°50'0 0.0
2017-May-18 05:55N 01°16' E 103°50'0 0.1
2017-May-18 05:25N 01°16' E 103°50'0 0.1
2017-May-18 04:58N 01°16' E 103°50'0 0.0
2017-May-18 04:28N 01°16' E 103°50'0 0.0
2017-May-18 03:55N 01°16' E 103°50'0 0.0
2017-May-18 03:28N 01°16' E 103°50'0 0.1
2017-May-18 03:00N 01°16' E 103°50'1 2.9
2017-May-18 02:30N 01°15' E 103°51'2 4.8
2017-May-18 02:00N 01°14' E 103°53'1 2.7
2017-May-18 01:30N 01°13' E 103°54'2 3.3
2017-May-18 01:00N 01°12' E 103°55'4 7.3
2017-May-18 00:30N 01°11' E 103°51'3 7.0
2017-May-18 00:00N 01°10' E 103°48'4 7.7
2017-May-17 23:30N 01°07' E 103°45'4 7.6
2017-May-17 23:00N 01°05' E 103°43'4 7.1
2017-May-17 22:30N 01°03' E 103°40'4 6.6
2017-May-17 21:57N 01°04' E 103°36'1 1.8
2017-May-17 21:28N 01°04' E 103°35'3 5.9
2017-May-17 20:58N 01°06' E 103°33'2 5.0
2017-May-17 20:30N 01°07' E 103°31'3 5.7
2017-May-17 20:00N 01°09' E 103°28'3 5.1
2017-May-17 19:30N 01°10' E 103°26'5 9.0
2017-May-17 19:00N 01°13' E 103°23'914.2
2017-May-17 18:23N 01°19' E 103°16'  

Dump ship's entire track history